createdAt,value
2022-10-31T03:50:45.067Z,10.80
2022-10-31T03:53:19.276Z,10.80
2022-10-31T03:55:53.302Z,10.90
2022-10-31T03:58:26.454Z,10.90
2022-10-31T04:00:58.191Z,10.90
2022-10-31T04:03:29.627Z,10.90
2022-10-31T04:06:04.349Z,10.80
2022-10-31T04:08:36.273Z,10.80
2022-10-31T04:11:06.588Z,10.80
2022-10-31T04:13:39.541Z,10.80
2022-10-31T04:16:12.631Z,10.80
2022-10-31T04:18:45.024Z,10.90
2022-10-31T04:21:16.746Z,10.80
2022-10-31T04:23:45.170Z,10.80
2022-10-31T04:26:14.804Z,10.90
2022-10-31T04:28:43.856Z,10.90
2022-10-31T04:31:14.358Z,10.90
2022-10-31T04:33:43.164Z,10.90
2022-10-31T04:36:13.039Z,10.90
2022-10-31T04:38:42.937Z,10.90
2022-10-31T04:41:11.460Z,10.90
2022-10-31T04:43:40.119Z,10.90
2022-10-31T04:46:08.535Z,10.80
2022-10-31T04:48:37.436Z,10.90
2022-10-31T04:51:06.254Z,10.90
2022-10-31T04:53:34.615Z,10.80
2022-10-31T04:56:04.617Z,10.80
2022-10-31T04:58:32.879Z,10.80
2022-10-31T05:01:01.437Z,10.80
2022-10-31T05:03:29.865Z,10.80
2022-10-31T05:05:58.153Z,10.80
2022-10-31T05:08:26.618Z,10.70
2022-10-31T05:10:55.015Z,10.70
2022-10-31T05:13:24.650Z,10.70
2022-10-31T05:15:53.135Z,10.70
2022-10-31T05:18:21.406Z,10.70
2022-10-31T05:20:49.918Z,10.70
2022-10-31T05:23:18.432Z,10.70
2022-10-31T05:25:46.774Z,10.70
2022-10-31T05:28:15.199Z,10.70
2022-10-31T05:30:44.893Z,10.70
2022-10-31T05:33:13.161Z,10.60
2022-10-31T05:35:41.602Z,10.60
2022-10-31T05:38:09.918Z,10.50
2022-10-31T05:40:38.149Z,10.60
2022-10-31T05:43:06.558Z,10.60
2022-10-31T05:45:34.869Z,10.60
2022-10-31T05:48:05.685Z,10.60
2022-10-31T05:50:34.555Z,10.60
2022-10-31T05:53:05.537Z,10.60
2022-10-31T05:55:34.450Z,10.60
2022-10-31T05:58:03.037Z,10.60
2022-10-31T06:00:31.813Z,10.60
2022-10-31T06:03:01.648Z,10.60
2022-10-31T06:05:32.347Z,10.60
2022-10-31T06:08:01.428Z,10.60
2022-10-31T06:10:30.557Z,10.60
2022-10-31T06:12:58.866Z,10.60
2022-10-31T06:15:27.324Z,10.60
2022-10-31T06:18:04.357Z,10.70
2022-10-31T06:20:35.392Z,10.70
2022-10-31T06:23:04.265Z,10.80
2022-10-31T06:25:33.961Z,10.90
2022-10-31T06:28:03.194Z,10.90
2022-10-31T06:30:31.503Z,11.00
2022-10-31T06:33:05.531Z,11.00
2022-10-31T06:35:47.019Z,11.10
2022-10-31T06:38:15.487Z,11.20
2022-10-31T06:40:44.482Z,11.20
2022-10-31T06:43:15.906Z,11.30
2022-10-31T06:45:44.393Z,11.30
2022-10-31T06:48:17.313Z,11.40
2022-10-31T06:50:48.099Z,11.40
2022-10-31T06:53:16.817Z,11.50
2022-10-31T06:55:45.391Z,11.50
2022-10-31T06:58:14.513Z,11.60
2022-10-31T07:00:42.858Z,11.60
2022-10-31T07:03:14.242Z,11.70
2022-10-31T07:05:43.533Z,11.80
2022-10-31T07:08:15.539Z,11.90
2022-10-31T07:10:45.296Z,12.00
2022-10-31T07:13:16.047Z,12.20
2022-10-31T07:15:46.220Z,12.30
2022-10-31T07:18:15.827Z,12.40
2022-10-31T07:20:44.614Z,12.60
2022-10-31T07:23:15.841Z,11.70
2022-10-31T07:25:44.819Z,12.90
2022-10-31T07:28:13.879Z,13.00
2022-10-31T07:30:42.754Z,13.10
2022-10-31T07:33:11.232Z,13.10
2022-10-31T07:35:39.832Z,13.30
2022-10-31T07:38:13.775Z,13.50
2022-10-31T07:40:43.390Z,13.60
2022-10-31T07:43:14.497Z,13.80
2022-10-31T07:45:47.838Z,14.00
2022-10-31T07:48:16.616Z,14.10
2022-10-31T07:50:45.626Z,14.20
2022-10-31T07:53:16.779Z,14.40
2022-10-31T07:55:46.156Z,14.40
2022-10-31T07:58:17.125Z,14.50
2022-10-31T08:00:48.802Z,14.50
2022-10-31T08:03:19.232Z,14.60
2022-10-31T08:05:48.298Z,14.60
2022-10-31T08:08:18.657Z,14.60
2022-10-31T08:10:47.184Z,14.60
2022-10-31T08:13:16.613Z,14.60
2022-10-31T08:15:45.698Z,14.60
2022-10-31T08:18:15.965Z,14.50
2022-10-31T08:20:45.659Z,14.50
2022-10-31T08:23:15.888Z,14.50
2022-10-31T08:25:48.007Z,14.50
2022-10-31T08:28:17.144Z,14.50
2022-10-31T08:30:47.172Z,14.50
2022-10-31T08:33:18.995Z,14.50
2022-10-31T08:35:48.727Z,14.50
2022-10-31T08:38:17.330Z,14.50
2022-10-31T08:40:51.467Z,14.60
2022-10-31T08:43:21.095Z,14.60
2022-10-31T08:45:52.187Z,14.60
2022-10-31T08:48:20.503Z,14.60
2022-10-31T08:50:49.408Z,14.60
2022-10-31T08:53:20.016Z,14.50
2022-10-31T08:55:49.998Z,14.50
2022-10-31T08:58:21.401Z,14.60
2022-10-31T09:00:53.127Z,14.50
2022-10-31T09:03:23.748Z,14.50
2022-10-31T09:05:52.842Z,14.50
2022-10-31T09:08:21.306Z,14.50
2022-10-31T09:10:51.393Z,14.50
2022-10-31T09:13:23.484Z,14.50
2022-10-31T09:15:55.496Z,14.30
2022-10-31T09:18:25.289Z,14.30
2022-10-31T09:20:55.221Z,14.30
2022-10-31T09:23:25.396Z,14.30
2022-10-31T09:25:56.330Z,14.30
2022-10-31T09:28:25.980Z,14.40
2022-10-31T09:31:00.433Z,14.40
2022-10-31T09:33:29.024Z,14.20
2022-10-31T09:35:57.518Z,14.50
2022-10-31T09:38:26.536Z,14.50
2022-10-31T09:41:07.673Z,14.50
2022-10-31T09:43:49.090Z,14.50
2022-10-31T09:46:26.916Z,14.50
2022-10-31T09:49:26.130Z,14.60
2022-10-31T09:52:01.684Z,14.60
2022-10-31T09:54:36.463Z,14.60
2022-10-31T09:57:08.022Z,14.70
2022-10-31T09:59:50.043Z,14.70
2022-10-31T10:02:30.177Z,14.80
2022-10-31T10:05:02.076Z,15.00
2022-10-31T10:07:41.016Z,15.10
2022-10-31T10:10:19.306Z,15.20
2022-10-31T10:13:09.436Z,15.30
2022-10-31T10:16:24.183Z,15.30
2022-10-31T10:19:07.834Z,15.30
2022-10-31T10:21:45.830Z,15.30
2022-10-31T10:24:27.827Z,15.40
2022-10-31T10:27:07.843Z,15.40
2022-10-31T10:29:43.329Z,15.50
2022-10-31T10:32:16.887Z,15.60
2022-10-31T10:34:50.335Z,15.70
2022-10-31T10:37:30.331Z,15.70
2022-10-31T10:40:10.828Z,15.60
2022-10-31T10:42:57.508Z,15.80
2022-10-31T10:45:45.186Z,15.90
2022-10-31T10:48:18.467Z,16.00
2022-10-31T10:50:51.266Z,16.10
2022-10-31T10:53:50.850Z,16.20
2022-10-31T10:56:25.882Z,16.30
2022-10-31T10:58:56.856Z,16.30
2022-10-31T11:01:27.136Z,16.40
2022-10-31T11:03:55.580Z,16.40
2022-10-31T11:06:27.336Z,16.50
2022-10-31T11:08:56.541Z,16.50
2022-10-31T11:11:31.418Z,16.60
2022-10-31T11:14:05.322Z,15.20
2022-10-31T11:16:41.312Z,16.70
2022-10-31T11:19:18.721Z,16.70
2022-10-31T11:21:53.588Z,16.70
2022-10-31T11:24:24.313Z,16.80
2022-10-31T11:26:53.707Z,16.90
2022-10-31T11:29:26.158Z,17.00
2022-10-31T11:31:59.491Z,17.00
2022-10-31T11:34:34.578Z,17.10
2022-10-31T11:37:11.960Z,17.20
2022-10-31T11:39:45.050Z,17.20
2022-10-31T11:42:14.325Z,17.20
2022-10-31T11:44:45.685Z,17.30
2022-10-31T11:47:19.089Z,17.30
2022-10-31T11:49:50.622Z,17.30
2022-10-31T11:52:22.913Z,17.30
2022-10-31T11:54:55.710Z,17.30
2022-10-31T11:57:29.989Z,17.40
2022-10-31T12:00:01.033Z,17.40
2022-10-31T12:02:31.803Z,17.40
2022-10-31T12:05:06.654Z,17.20
2022-10-31T12:07:35.114Z,17.40
2022-10-31T12:10:03.777Z,17.50
2022-10-31T12:13:00.293Z,17.50
2022-10-31T12:15:34.343Z,17.50
2022-10-31T12:18:25.135Z,17.50
2022-10-31T12:21:06.735Z,17.50
2022-10-31T12:23:47.177Z,17.60
2022-10-31T12:26:21.716Z,17.60
2022-10-31T12:29:11.915Z,17.60
2022-10-31T12:32:05.303Z,17.60
2022-10-31T12:35:06.650Z,17.60
2022-10-31T12:37:50.976Z,17.70
2022-10-31T12:40:37.585Z,17.70
2022-10-31T12:43:23.135Z,17.70
2022-10-31T12:45:56.906Z,17.70
2022-10-31T12:48:58.488Z,17.70
2022-10-31T12:51:40.085Z,17.70
2022-10-31T12:54:44.144Z,17.70
2022-10-31T12:57:25.130Z,17.70
2022-10-31T12:59:59.300Z,17.80
2022-10-31T13:02:32.336Z,17.70
2022-10-31T13:05:05.004Z,17.80
2022-10-31T13:07:40.617Z,17.80
2022-10-31T13:10:17.505Z,17.90
2022-10-31T13:12:48.098Z,17.80
2022-10-31T13:15:21.313Z,17.90
2022-10-31T13:17:52.222Z,17.80
2022-10-31T13:20:26.487Z,17.80
2022-10-31T13:23:13.383Z,17.90
2022-10-31T13:25:51.654Z,17.90
2022-10-31T13:28:31.535Z,17.80
2022-10-31T13:30:59.999Z,17.80
2022-10-31T13:33:32.440Z,17.70
2022-10-31T13:36:18.122Z,17.70
2022-10-31T13:38:54.315Z,17.70
2022-10-31T13:41:36.001Z,17.70
2022-10-31T13:44:18.341Z,17.60
2022-10-31T13:46:47.635Z,17.60
2022-10-31T13:49:40.381Z,17.60
2022-10-31T13:52:17.479Z,17.60
2022-10-31T13:54:49.220Z,17.50
2022-10-31T13:57:24.659Z,17.50
2022-10-31T13:59:55.789Z,17.50
2022-10-31T14:02:28.954Z,17.50
2022-10-31T14:05:02.511Z,17.40
2022-10-31T14:07:32.766Z,17.40
2022-10-31T14:10:06.868Z,17.30
2022-10-31T14:12:41.386Z,17.20
2022-10-31T14:15:20.163Z,17.20
2022-10-31T14:17:51.370Z,17.00
2022-10-31T14:20:36.305Z,16.90
2022-10-31T14:23:41.727Z,16.90
2022-10-31T14:26:23.611Z,16.80
2022-10-31T14:28:52.964Z,16.70
2022-10-31T14:31:37.730Z,16.60
2022-10-31T14:34:24.590Z,16.50
2022-10-31T14:37:20.911Z,16.40
2022-10-31T14:40:10.776Z,16.30
2022-10-31T14:43:01.349Z,16.20
2022-10-31T14:45:39.569Z,16.10
2022-10-31T14:48:32.568Z,16.00
2022-10-31T14:51:03.116Z,15.90
2022-10-31T14:53:35.478Z,15.80
2022-10-31T14:56:06.892Z,15.70
2022-10-31T14:58:40.644Z,15.60
2022-10-31T15:01:10.000Z,15.50
2022-10-31T15:03:44.755Z,15.40
2022-10-31T15:06:26.991Z,15.40
2022-10-31T15:08:57.139Z,15.30
2022-10-31T15:11:28.690Z,15.20
2022-10-31T15:14:01.153Z,15.10
2022-10-31T15:16:34.404Z,15.00
2022-10-31T15:19:07.498Z,14.90
2022-10-31T15:21:37.890Z,14.80
2022-10-31T15:24:06.719Z,14.70
2022-10-31T15:26:41.600Z,14.70
2022-10-31T15:29:16.723Z,14.60
2022-10-31T15:31:57.004Z,14.50
2022-10-31T15:34:32.406Z,14.50
2022-10-31T15:37:01.026Z,14.40
2022-10-31T15:39:29.779Z,14.30
2022-10-31T15:42:00.336Z,14.30
2022-10-31T15:44:33.573Z,14.20
2022-10-31T15:47:04.346Z,14.10
2022-10-31T15:49:42.221Z,14.10
2022-10-31T15:52:17.044Z,14.00
2022-10-31T15:54:53.133Z,12.70
2022-10-31T15:57:21.619Z,13.90
2022-10-31T15:59:53.246Z,13.80
2022-10-31T16:02:25.821Z,13.80
2022-10-31T16:04:57.865Z,13.80
2022-10-31T16:07:28.482Z,13.70
2022-10-31T16:10:01.476Z,13.70
2022-10-31T16:12:36.927Z,13.70
2022-10-31T16:15:09.155Z,13.60
2022-10-31T16:17:43.164Z,13.60
2022-10-31T16:20:23.292Z,13.60
2022-10-31T16:22:54.534Z,13.60
2022-10-31T16:25:27.766Z,13.60
2022-10-31T16:28:03.984Z,13.50
2022-10-31T16:30:44.037Z,13.60
2022-10-31T16:33:32.022Z,13.60
2022-10-31T16:36:29.982Z,13.60
2022-10-31T16:38:51.635Z,13.60
2022-10-31T16:41:20.773Z,13.60
2022-10-31T16:43:52.412Z,13.50
2022-10-31T16:46:25.735Z,15.20
2022-10-31T16:48:57.513Z,13.50
2022-10-31T16:51:26.143Z,13.50
2022-10-31T16:53:56.085Z,13.50
2022-10-31T16:56:30.073Z,13.50
2022-10-31T16:59:12.070Z,13.50
2022-10-31T17:01:48.285Z,13.50
2022-10-31T17:04:22.713Z,13.50
2022-10-31T17:06:52.573Z,13.40
2022-10-31T17:09:21.072Z,13.40
2022-10-31T17:11:52.676Z,13.40
2022-10-31T17:14:22.155Z,13.30
2022-10-31T17:17:01.920Z,13.30
2022-10-31T17:19:30.393Z,13.30
2022-10-31T17:21:58.970Z,13.30
2022-10-31T17:24:28.645Z,13.30
2022-10-31T17:26:57.141Z,13.40
2022-10-31T17:29:25.581Z,13.30
2022-10-31T17:31:55.821Z,13.30
2022-10-31T17:34:24.325Z,13.30
2022-10-31T17:36:53.572Z,13.40
2022-10-31T17:39:22.890Z,13.40
2022-10-31T17:41:52.840Z,13.40
2022-10-31T17:44:21.306Z,13.30
2022-10-31T17:46:52.054Z,13.30
2022-10-31T17:49:27.073Z,13.30
2022-10-31T17:51:55.732Z,13.30
2022-10-31T17:54:24.492Z,13.30
2022-10-31T17:56:55.083Z,13.20
2022-10-31T17:59:30.313Z,13.20
2022-10-31T18:02:00.678Z,13.20
2022-10-31T18:04:30.736Z,13.20
2022-10-31T18:07:06.054Z,13.20
2022-10-31T18:09:34.721Z,13.20
2022-10-31T18:12:04.249Z,13.30
2022-10-31T18:14:32.792Z,13.20
2022-10-31T18:17:01.160Z,13.20
2022-10-31T18:19:32.377Z,13.30
2022-10-31T18:22:01.039Z,13.30
2022-10-31T18:24:29.736Z,13.30
2022-10-31T18:26:58.311Z,13.30
2022-10-31T18:29:26.941Z,13.30
2022-10-31T18:31:55.634Z,13.30
2022-10-31T18:34:23.949Z,13.30
2022-10-31T18:36:53.847Z,13.20
2022-10-31T18:39:22.420Z,13.20
2022-10-31T18:41:50.981Z,13.20
2022-10-31T18:44:19.290Z,13.20
2022-10-31T18:46:47.803Z,13.20
2022-10-31T18:49:22.821Z,13.20
2022-10-31T18:51:51.690Z,13.20
2022-10-31T18:54:21.648Z,13.20
2022-10-31T18:56:50.104Z,13.20
2022-10-31T18:59:18.617Z,13.20
2022-10-31T19:01:47.784Z,13.20
2022-10-31T19:04:19.154Z,13.20
2022-10-31T19:06:48.805Z,13.20
2022-10-31T19:09:20.703Z,13.20
2022-10-31T19:11:49.265Z,13.20
2022-10-31T19:14:23.560Z,13.20
2022-10-31T19:16:55.203Z,13.20
2022-10-31T19:19:24.738Z,13.20
2022-10-31T19:21:53.049Z,13.20
2022-10-31T19:24:22.782Z,13.20
2022-10-31T19:26:51.747Z,13.20
2022-10-31T19:29:21.925Z,13.20
2022-10-31T19:31:50.682Z,13.20
2022-10-31T19:34:24.204Z,13.20
2022-10-31T19:36:53.959Z,13.20
2022-10-31T19:39:24.018Z,13.30
2022-10-31T19:41:53.745Z,13.30
2022-10-31T19:44:22.479Z,13.30
2022-10-31T19:46:54.351Z,13.20
2022-10-31T19:49:25.326Z,13.20
2022-10-31T19:51:54.391Z,13.30
2022-10-31T19:54:32.289Z,13.20
2022-10-31T19:57:00.657Z,13.30
2022-10-31T19:59:29.151Z,13.30
2022-10-31T20:02:03.395Z,13.30
2022-10-31T20:04:35.555Z,13.30
2022-10-31T20:07:04.297Z,13.30
2022-10-31T20:09:34.068Z,13.20
2022-10-31T20:12:05.364Z,13.30
2022-10-31T20:14:35.001Z,13.30
2022-10-31T20:17:09.656Z,13.30
2022-10-31T20:19:38.660Z,13.20
2022-10-31T20:22:07.415Z,13.20
2022-10-31T20:24:37.453Z,13.20
2022-10-31T20:27:06.057Z,13.20
2022-10-31T20:29:34.525Z,13.20
2022-10-31T20:32:04.517Z,13.20
2022-10-31T20:34:33.330Z,13.20
2022-10-31T20:37:01.783Z,13.10
2022-10-31T20:39:30.361Z,13.20
2022-10-31T20:42:06.753Z,13.10
2022-10-31T20:44:41.016Z,13.10
2022-10-31T20:47:11.030Z,13.10
2022-10-31T20:49:39.546Z,13.10
2022-10-31T20:52:07.904Z,13.10
2022-10-31T20:54:43.168Z,13.10
2022-10-31T20:57:17.465Z,13.10
2022-10-31T20:59:53.414Z,13.10
2022-10-31T21:02:21.813Z,13.10
2022-10-31T21:04:51.481Z,13.10
2022-10-31T21:07:20.815Z,12.00
2022-10-31T21:09:50.685Z,13.10
2022-10-31T21:12:22.177Z,13.10
2022-10-31T21:14:50.900Z,13.10
2022-10-31T21:17:19.392Z,13.00
2022-10-31T21:19:49.267Z,13.00
2022-10-31T21:22:23.800Z,13.00
2022-10-31T21:24:55.996Z,13.10
2022-10-31T21:27:28.212Z,13.00
2022-10-31T21:29:56.554Z,13.00
2022-10-31T21:32:29.729Z,13.10
2022-10-31T21:34:58.104Z,13.00
2022-10-31T21:37:26.904Z,13.00
2022-10-31T21:40:01.239Z,13.00
2022-10-31T21:42:36.311Z,13.00
2022-10-31T21:45:11.098Z,12.90
2022-10-31T21:47:39.647Z,12.90
2022-10-31T21:50:14.868Z,12.90
2022-10-31T21:52:43.451Z,12.90
2022-10-31T21:55:12.166Z,12.90
2022-10-31T21:57:43.118Z,12.90
2022-10-31T22:00:16.981Z,12.90
2022-10-31T22:02:45.599Z,12.80
2022-10-31T22:05:14.226Z,12.80
2022-10-31T22:07:42.479Z,12.80
2022-10-31T22:10:11.285Z,12.70
2022-10-31T22:12:39.703Z,12.70
2022-10-31T22:15:10.479Z,12.70
2022-10-31T22:17:38.978Z,12.70
2022-10-31T22:20:09.011Z,12.70
2022-10-31T22:22:37.446Z,12.60
2022-10-31T22:25:06.366Z,12.60
2022-10-31T22:27:36.893Z,12.60
2022-10-31T22:30:06.236Z,12.60
2022-10-31T22:32:35.930Z,12.60
2022-10-31T22:35:04.433Z,12.60
2022-10-31T22:37:32.772Z,12.50
2022-10-31T22:40:02.383Z,12.50
2022-10-31T22:42:30.726Z,14.00
2022-10-31T22:45:04.071Z,12.50
2022-10-31T22:47:32.774Z,12.50
2022-10-31T22:50:03.865Z,12.50
